Time;durP1;ratioP1;P1;durP2;ratioP2;P2;SDS_P1;SDS_P2;PMS_P1;PMS_P2;Temp;Humidity;BMP_temperature;BMP_pressure;BME280_temperature;BME280_humidity;BME280_pressure;Samples;Min_cycle;Max_cycle;Signal;HPM_P1;HPM_P2
2022/06/04 00:08:48;;;;;;;6.95;3.30;;;19.00;99.90;;;;;;6715230;88;20194;-81
2022/06/04 00:18:49;;;;;;;7.25;3.10;;;19.30;99.90;;;;;;6747066;88;20192;-81
2022/06/04 00:28:49;;;;;;;3.58;2.62;;;19.40;99.90;;;;;;6753614;88;20257;-80
2022/06/04 00:38:50;;;;;;;4.97;2.78;;;18.90;99.90;;;;;;6751313;88;20611;-81
2022/06/04 00:48:50;;;;;;;6.40;3.07;;;18.90;99.90;;;;;;6754881;88;20225;-82
2022/06/04 00:59:00;;;;;;;5.03;3.42;;;18.30;99.90;;;;;;6753271;88;20208;-81
2022/06/04 01:09:25;;;;;;;6.97;3.17;;;18.10;99.90;;;;;;6724852;88;20308;-81
2022/06/04 01:19:43;;;;;;;;;;;18.10;99.90;;;;;;6730422;88;20219;-81
2022/06/04 01:30:02;;;;;;;4.18;3.17;;;18.10;99.90;;;;;;6738775;88;20063;-80
2022/06/04 01:50:31;;;;;;;5.20;4.15;;;17.90;99.90;;;;;;6735140;88;20170;-83
2022/06/04 02:00:43;;;;;;;7.43;4.10;;;17.90;99.90;;;;;;6732389;88;20239;-81
2022/06/04 02:10:53;;;;;;;6.55;4.50;;;17.70;99.90;;;;;;6731578;88;20232;-81
2022/06/04 02:20:54;;;;;;;5.45;4.05;;;17.80;99.90;;;;;;6735765;88;20673;-81
2022/06/04 02:30:57;;;;;;;6.62;4.50;;;17.40;99.90;;;;;;6734779;88;20201;-80
2022/06/04 02:41:10;;;;;;;5.32;4.30;;;17.50;99.90;;;;;;6731094;88;20190;-81
2022/06/04 02:51:18;;;;;;;6.68;4.62;;;17.10;99.90;;;;;;6734771;88;20170;-81
2022/06/04 03:01:20;;;;;;;6.00;4.40;;;17.30;99.90;;;;;;6731960;88;20286;-81
2022/06/04 03:11:21;;;;;;;6.75;4.60;;;17.10;99.90;;;;;;6730998;88;20185;-81
2022/06/04 03:21:22;;;;;;;8.18;4.57;;;16.90;99.90;;;;;;6731444;88;20683;-81
2022/06/04 03:31:25;;;;;;;7.00;4.72;;;16.90;99.90;;;;;;6739293;88;20671;-81
2022/06/04 03:41:26;;;;;;;6.75;4.28;;;16.90;99.90;;;;;;6736579;88;20181;-85
2022/06/04 03:51:27;;;;;;;5.72;4.40;;;16.40;99.90;;;;;;6743320;88;20201;-80
2022/06/04 04:01:29;;;;;;;8.18;4.70;;;16.70;99.90;;;;;;6730476;88;20205;-81
2022/06/04 04:11:30;;;;;;;5.47;4.37;;;16.60;99.90;;;;;;6734343;88;20212;-80
2022/06/04 04:21:40;;;;;;;6.47;5.05;;;16.60;99.90;;;;;;6730339;88;20215;-81
2022/06/04 04:31:40;;;;;;;7.97;5.20;;;16.40;99.90;;;;;;6729271;88;20760;-81
2022/06/04 04:41:41;;;;;;;6.87;5.35;;;16.40;99.90;;;;;;6729095;88;20197;-82
2022/06/04 04:51:41;;;;;;;6.43;5.57;;;16.50;99.90;;;;;;6729028;88;20290;-80
2022/06/04 05:01:42;;;;;;;7.80;5.90;;;16.40;99.90;;;;;;6732418;88;20211;-80
2022/06/04 05:11:43;;;;;;;7.28;5.93;;;16.70;99.90;;;;;;6719137;88;20228;-80
2022/06/04 05:21:50;;;;;;;7.75;6.00;;;17.20;99.90;;;;;;6720732;88;20243;-80
2022/06/04 05:31:54;;;;;;;6.93;5.62;;;17.30;99.90;;;;;;6733649;88;20203;-80
2022/06/04 05:41:55;;;;;;;6.47;5.30;;;17.40;99.90;;;;;;6729423;88;20180;-79
2022/06/04 05:51:56;;;;;;;8.07;5.68;;;17.40;99.90;;;;;;6736595;88;20208;-80
2022/06/04 06:01:56;;;;;;;7.90;5.62;;;17.60;99.90;;;;;;6753216;88;20192;-80
2022/06/04 06:11:57;;;;;;;7.22;5.95;;;18.10;99.90;;;;;;6748414;88;20723;-81
2022/06/04 06:21:57;;;;;;;10.90;5.97;;;18.20;99.90;;;;;;6735322;88;20197;-81
2022/06/04 06:32:00;;;;;;;6.35;5.30;;;18.50;99.90;;;;;;6741289;88;20184;-81
2022/06/04 06:42:01;;;;;;;8.50;5.80;;;18.80;99.90;;;;;;6751603;88;20181;-81
2022/06/04 06:52:03;;;;;;;7.90;5.60;;;19.00;99.90;;;;;;6739252;88;20210;-80
2022/06/04 07:02:04;;;;;;;9.90;7.00;;;19.50;99.90;;;;;;6730536;88;20230;-78
2022/06/04 07:12:07;;;;;;;9.40;5.70;;;19.80;99.90;;;;;;6727926;88;20722;-78
2022/06/04 07:22:10;;;;;;;10.10;5.07;;;20.20;99.90;;;;;;6724610;88;20355;-80
2022/06/04 07:32:11;;;;;;;6.60;5.12;;;20.70;99.90;;;;;;6725101;88;20186;-79
2022/06/04 07:42:11;;;;;;;7.55;5.75;;;21.10;99.90;;;;;;6726446;88;20205;-78
2022/06/04 07:52:12;;;;;;;9.02;5.90;;;21.70;99.90;;;;;;6741252;88;20206;-80
2022/06/04 08:02:13;;;;;;;8.85;6.05;;;21.80;99.90;;;;;;6736451;88;20197;-79
2022/06/04 08:12:17;;;;;;;10.35;6.05;;;22.40;99.90;;;;;;6741629;88;20236;-82
2022/06/04 08:22:17;;;;;;;6.80;5.07;;;22.70;99.90;;;;;;6732665;88;20173;-81
2022/06/04 08:32:18;;;;;;;8.93;5.78;;;22.80;99.90;;;;;;6748450;88;20194;-83
2022/06/04 08:42:35;;;;;;;9.38;5.70;;;23.70;99.90;;;;;;6744225;88;20705;-81
2022/06/04 08:52:48;;;;;;;8.88;5.50;;;24.20;99.90;;;;;;6725145;88;20197;-80
2022/06/04 09:03:09;;;;;;;8.57;5.68;;;24.20;99.90;;;;;;6723892;88;20244;-76
2022/06/04 09:13:19;;;;;;;8.52;5.87;;;23.40;99.90;;;;;;6726109;88;20243;-77
2022/06/04 09:23:35;;;;;;;7.68;6.10;;;23.60;99.90;;;;;;6722300;88;20230;-77
2022/06/04 09:33:46;;;;;;;8.23;5.18;;;25.40;99.90;;;;;;6725327;88;20683;-78
2022/06/04 09:43:59;;;;;;;8.85;5.70;;;27.00;99.90;;;;;;6723907;88;20199;-77
2022/06/04 09:54:02;;;;;;;6.12;5.00;;;28.10;98.70;;;;;;6720531;88;20193;-77
2022/06/04 10:04:14;;;;;;;8.18;5.72;;;28.80;97.90;;;;;;6718454;88;20253;-76
2022/06/04 10:14:15;;;;;;;6.80;4.67;;;28.10;98.40;;;;;;6718842;88;20196;-77
2022/06/04 10:24:24;;;;;;;6.60;4.60;;;29.00;97.70;;;;;;6721312;88;20682;-77
2022/06/04 10:34:45;;;;;;;7.25;5.20;;;29.30;97.20;;;;;;6722350;88;20193;-78
2022/06/04 10:45:03;;;;;;;6.32;5.03;;;28.50;97.40;;;;;;6717943;88;20381;-75
2022/06/04 10:55:08;;;;;;;7.87;4.78;;;29.60;96.70;;;;;;6719693;88;20347;-78
2022/06/04 11:05:25;;;;;;;6.43;4.55;;;29.90;96.60;;;;;;6726085;88;20185;-75
2022/06/04 11:15:34;;;;;;;7.00;4.60;;;30.60;96.30;;;;;;6715604;88;20309;-78
2022/06/04 11:25:42;;;;;;;6.45;4.90;;;29.90;97.10;;;;;;6727419;88;20189;-77
2022/06/04 11:36:12;;;;;;;6.15;4.60;;;31.20;95.60;;;;;;6721825;88;20187;-78
2022/06/04 11:47:01;;;;;;;7.50;5.00;;;31.00;95.70;;;;;;6727316;88;20175;-77
2022/06/04 11:57:15;;;;;;;7.82;4.87;;;31.60;95.00;;;;;;6723018;88;20645;-76
2022/06/04 12:07:51;;;;;;;7.62;4.55;;;32.00;94.50;;;;;;6719712;88;20686;-79
2022/06/04 12:18:17;;;;;;;5.37;4.57;;;32.60;93.90;;;;;;6732144;88;21019;-78
2022/06/04 12:28:41;;;;;;;4.85;4.28;;;32.60;93.00;;;;;;6730892;88;20196;-81
2022/06/04 12:38:46;;;;;;;4.57;3.80;;;33.70;92.40;;;;;;6769117;88;20239;-80
2022/06/04 12:49:16;;;;;;;4.30;3.90;;;33.50;92.70;;;;;;6726924;88;20266;-75
2022/06/04 12:59:48;;;;;;;4.93;3.70;;;33.70;91.80;;;;;;6721294;88;20189;-73
2022/06/04 13:10:04;;;;;;;4.75;3.90;;;34.20;91.50;;;;;;6713358;88;20190;-79
2022/06/04 13:20:14;;;;;;;5.50;3.92;;;33.60;91.30;;;;;;6746787;88;20184;-81
2022/06/04 13:30:22;;;;;;;4.30;3.27;;;34.00;90.50;;;;;;6742938;88;20969;-83
2022/06/04 13:40:31;;;;;;;3.80;3.40;;;34.90;89.60;;;;;;6744189;88;20209;-83
2022/06/04 13:50:32;;;;;;;4.62;3.50;;;34.40;89.60;;;;;;6744944;88;20286;-83
2022/06/04 14:00:34;;;;;;;4.07;3.10;;;33.90;88.20;;;;;;6746181;88;20186;-84
2022/06/04 14:10:36;;;;;;;3.97;3.17;;;33.10;88.50;;;;;;6745050;88;20170;-84
2022/06/04 14:21:27;;;;;;;6.00;3.37;;;33.00;89.90;;;;;;6745503;88;20179;-83
2022/06/04 14:31:51;;;;;;;4.03;2.90;;;33.90;88.60;;;;;;6734593;88;20779;-84
2022/06/04 14:42:24;;;;;;;3.20;2.90;;;33.60;88.80;;;;;;6746083;88;22475;-84
2022/06/04 14:52:36;;;;;;;3.78;3.20;;;33.00;90.00;;;;;;6742510;88;20232;-83
2022/06/04 15:02:54;;;;;;;3.10;2.80;;;33.40;88.40;;;;;;6746641;88;20685;-84
2022/06/04 15:13:03;;;;;;;3.20;2.90;;;32.90;89.10;;;;;;6742704;88;20744;-84
2022/06/04 15:23:39;;;;;;;3.92;3.20;;;32.40;87.50;;;;;;6745949;88;20212;-83
2022/06/04 15:33:56;;;;;;;5.18;2.80;;;31.40;89.00;;;;;;6736994;88;20178;-84
2022/06/04 15:44:04;;;;;;;3.10;2.80;;;30.90;88.80;;;;;;6745652;88;20201;-84
2022/06/04 16:04:49;;;;;;;4.93;3.10;;;31.70;90.00;;;;;;6730081;88;20275;-84
2022/06/04 16:15:09;;;;;;;4.25;3.10;;;30.70;90.50;;;;;;6744556;88;20194;-84
2022/06/04 16:25:25;;;;;;;5.07;3.20;;;29.70;91.80;;;;;;6745597;88;20273;-83
2022/06/04 16:35:26;;;;;;;4.65;3.20;;;30.20;92.20;;;;;;6735227;88;20309;-81
2022/06/04 16:45:33;;;;;;;4.75;3.10;;;30.60;91.50;;;;;;6729344;88;20170;-80
2022/06/04 16:55:36;;;;;;;3.05;2.75;;;29.90;92.80;;;;;;6736887;88;20787;-77
2022/06/04 17:05:54;;;;;;;3.92;3.00;;;29.40;93.40;;;;;;6732369;77;20173;-77
2022/06/04 17:16:25;;;;;;;3.42;3.00;;;28.80;93.40;;;;;;6745560;87;20223;-78
2022/06/04 17:26:30;;;;;;;5.05;2.87;;;28.90;93.00;;;;;;6747011;87;20184;-74
2022/06/04 17:37:09;;;;;;;4.37;3.10;;;28.60;93.60;;;;;;6751042;87;20303;-76
2022/06/04 17:47:10;;;;;;;4.12;3.10;;;28.80;93.20;;;;;;6751678;87;20562;-73
2022/06/04 17:57:11;;;;;;;4.32;3.10;;;28.40;93.60;;;;;;6750750;87;20184;-75
2022/06/04 18:07:12;;;;;;;5.65;3.03;;;28.10;94.00;;;;;;6749261;87;20627;-74
2022/06/04 18:17:13;;;;;;;4.87;2.97;;;27.80;94.20;;;;;;6744704;87;20624;-75
2022/06/04 18:27:14;;;;;;;3.80;2.80;;;27.40;94.70;;;;;;6748525;87;20205;-75
2022/06/04 18:37:15;;;;;;;7.53;2.97;;;26.90;95.40;;;;;;6743643;88;20621;-76
2022/06/04 18:57:36;;;;;;;4.93;3.10;;;26.50;96.10;;;;;;6750262;88;20192;-76
2022/06/04 19:17:55;;;;;;;4.25;2.97;;;26.10;96.70;;;;;;6754530;87;20241;-76
2022/06/04 19:27:56;;;;;;;3.90;3.10;;;25.80;97.10;;;;;;6751839;87;20367;-77
2022/06/04 19:37:57;;;;;;;6.40;4.47;;;25.40;97.70;;;;;;6754107;87;20306;-76
2022/06/04 19:47:57;;;;;;;4.78;3.28;;;25.20;98.10;;;;;;6750214;87;20205;-77
2022/06/04 19:57:58;;;;;;;5.47;3.20;;;25.00;98.30;;;;;;6751909;87;20175;-77
2022/06/04 20:07:58;;;;;;;3.60;3.17;;;24.80;98.60;;;;;;6758429;87;20703;-77
2022/06/04 20:17:59;;;;;;;6.40;3.95;;;24.60;98.50;;;;;;6747183;88;20229;-79
2022/06/04 20:28:01;;;;;;;6.25;3.67;;;24.40;98.20;;;;;;6759651;87;20184;-78
2022/06/04 20:38:02;;;;;;;4.97;3.20;;;24.20;98.60;;;;;;6760135;87;20204;-79
2022/06/04 20:48:02;;;;;;;4.27;3.30;;;24.10;98.00;;;;;;6754884;87;20203;-79
2022/06/04 20:58:03;;;;;;;6.53;3.58;;;24.10;98.00;;;;;;6762538;87;20525;-78
2022/06/04 21:08:05;;;;;;;4.60;3.67;;;23.90;98.10;;;;;;6761193;87;20177;-78
2022/06/04 21:18:06;;;;;;;4.53;4.00;;;23.80;98.30;;;;;;6762221;87;20601;-78
2022/06/04 21:28:07;;;;;;;8.27;4.90;;;23.70;98.50;;;;;;6759194;88;20192;-77
2022/06/04 21:38:08;;;;;;;4.70;4.05;;;23.40;99.00;;;;;;6760230;87;20258;-79
2022/06/04 21:48:10;;;;;;;6.85;3.80;;;23.40;99.30;;;;;;6755838;88;20289;-77
2022/06/04 21:58:11;;;;;;;4.37;3.97;;;23.20;99.60;;;;;;6756952;88;20652;-77
2022/06/04 22:08:12;;;;;;;5.40;3.92;;;23.00;99.90;;;;;;6764624;87;20222;-78
2022/06/04 22:18:16;;;;;;;5.72;4.50;;;22.80;99.90;;;;;;6762892;88;20181;-77
2022/06/04 22:28:16;;;;;;;5.67;4.57;;;22.60;99.90;;;;;;6744593;88;20243;-80
2022/06/04 22:38:18;;;;;;;4.75;4.35;;;22.40;99.90;;;;;;6741937;88;20337;-80
2022/06/04 22:48:18;;;;;;;5.85;4.47;;;22.20;99.90;;;;;;6738615;88;20614;-80
2022/06/04 22:58:19;;;;;;;5.20;4.70;;;22.20;99.90;;;;;;6741713;88;20235;-79
2022/06/04 23:09:00;;;;;;;5.72;4.97;;;22.10;99.90;;;;;;6757372;77;20323;-82
2022/06/04 23:29:20;;;;;;;7.90;4.70;;;22.00;99.90;;;;;;6751018;88;20762;-80
2022/06/04 23:39:20;;;;;;;6.37;4.90;;;21.90;99.90;;;;;;6731202;88;20186;-81
2022/06/04 23:49:21;;;;;;;7.05;4.75;;;21.80;99.90;;;;;;6731051;88;20210;-81
2022/06/04 23:59:22;;;;;;;5.53;4.85;;;21.70;99.90;;;;;;6696592;88;20191;-81
